FDMS

Matsapha Airport

Manzini, Swaziland
METAR FDMS 180800Z VRB02KT 9999 FEW015 BKN025 21/17 Q1017 NOSIG
Observed Flight Rules
Dec-18 @ 08:00 UTC (58 minutes ago) Marginal Visual Flight Rules
Wind Visibility Clouds
Variable at 2 knots 10,000+ meters
  • Few at 1,500' AGL
  • Broken at 2,500' AGL
Temperatures Readings
Current 21°C / 70°F
Dewpoint 17°C / 63°F
Humidity 78%
Altimeter 30.03" Hg
Pressure 1017 hPa
Elevation 641
METAR FDMS 180800Z VRB02KT 9999 FEW015 BKN025 21/17 Q1017 NOSIG
Observed Flight Rules
Dec-18 @ 08:00 UTC
(58 minutes ago)
MVFR
Wind Visibility
Variable at 2 knots 10,000+ meters
Clouds
  • Few at 1,500' AGL
  • Broken at 2,500' AGL
Temperature Dewpoint
21°C / 70°F 17°C / 63°F
Humidity Altimeter Pressure
78% 30.03" Hg 1017 hPa